sensor_id;sensor_type;location;lat;lon;timestamp;temperature;humidity
16625;DHT22;8426;48.496;9.098;2023-02-15T00:01:11;-2.30;99.90
16625;DHT22;8426;48.496;9.098;2023-02-15T00:06:15;-2.20;99.90
16625;DHT22;8426;48.496;9.098;2023-02-15T00:11:20;-2.30;99.90
16625;DHT22;8426;48.496;9.098;2023-02-15T00:16:43;-2.40;99.90
16625;DHT22;8426;48.496;9.098;2023-02-15T00:21:48;-2.50;99.90
16625;DHT22;8426;48.496;9.098;2023-02-15T00:26:53;-2.50;99.90
16625;DHT22;8426;48.496;9.098;2023-02-15T00:31:56;-2.40;99.90
16625;DHT22;8426;48.496;9.098;2023-02-15T00:37:00;-2.40;99.90
16625;DHT22;8426;48.496;9.098;2023-02-15T00:42:04;-2.40;99.90
16625;DHT22;8426;48.496;9.098;2023-02-15T00:47:08;-2.40;99.90
16625;DHT22;8426;48.496;9.098;2023-02-15T00:52:11;-2.50;99.90
16625;DHT22;8426;48.496;9.098;2023-02-15T00:57:17;-2.50;99.90
16625;DHT22;8426;48.496;9.098;2023-02-15T01:02:20;-2.60;99.90
16625;DHT22;8426;48.496;9.098;2023-02-15T01:07:24;-2.70;99.90
16625;DHT22;8426;48.496;9.098;2023-02-15T01:12:28;-2.80;99.90
16625;DHT22;8426;48.496;9.098;2023-02-15T01:17:32;-2.70;99.90
16625;DHT22;8426;48.496;9.098;2023-02-15T01:22:35;-2.70;99.90
16625;DHT22;8426;48.496;9.098;2023-02-15T01:27:40;-2.60;99.90
16625;DHT22;8426;48.496;9.098;2023-02-15T01:32:43;-2.70;99.90
16625;DHT22;8426;48.496;9.098;2023-02-15T01:37:47;-2.60;99.90
16625;DHT22;8426;48.496;9.098;2023-02-15T01:42:52;-2.80;99.90
16625;DHT22;8426;48.496;9.098;2023-02-15T01:47:59;-3.00;99.90
16625;DHT22;8426;48.496;9.098;2023-02-15T01:53:08;-3.00;99.90
16625;DHT22;8426;48.496;9.098;2023-02-15T01:58:13;-2.90;99.90
16625;DHT22;8426;48.496;9.098;2023-02-15T02:03:18;-2.80;99.90
16625;DHT22;8426;48.496;9.098;2023-02-15T02:08:25;-2.80;99.90
16625;DHT22;8426;48.496;9.098;2023-02-15T02:13:29;-2.90;99.90
16625;DHT22;8426;48.496;9.098;2023-02-15T02:18:41;-2.90;99.90
16625;DHT22;8426;48.496;9.098;2023-02-15T02:24:03;-3.00;99.90
16625;DHT22;8426;48.496;9.098;2023-02-15T02:29:43;-3.00;99.90
16625;DHT22;8426;48.496;9.098;2023-02-15T02:34:57;-3.10;99.90
16625;DHT22;8426;48.496;9.098;2023-02-15T02:40:10;-3.20;99.90
16625;DHT22;8426;48.496;9.098;2023-02-15T02:45:19;-3.30;99.90
16625;DHT22;8426;48.496;9.098;2023-02-15T02:50:28;-3.30;99.90
16625;DHT22;8426;48.496;9.098;2023-02-15T02:55:37;-3.30;99.90
16625;DHT22;8426;48.496;9.098;2023-02-15T03:00:49;-3.30;99.90
16625;DHT22;8426;48.496;9.098;2023-02-15T03:05:57;-3.30;99.90
16625;DHT22;8426;48.496;9.098;2023-02-15T03:11:05;-3.30;99.90
16625;DHT22;8426;48.496;9.098;2023-02-15T03:16:10;-3.40;99.90
16625;DHT22;8426;48.496;9.098;2023-02-15T03:21:36;-3.30;99.90
16625;DHT22;8426;48.496;9.098;2023-02-15T03:26:45;-3.40;99.90
16625;DHT22;8426;48.496;9.098;2023-02-15T03:31:54;-3.40;99.90
16625;DHT22;8426;48.496;9.098;2023-02-15T03:37:05;-3.40;99.90
16625;DHT22;8426;48.496;9.098;2023-02-15T03:42:16;-3.40;99.90
16625;DHT22;8426;48.496;9.098;2023-02-15T03:47:23;-3.40;99.90
16625;DHT22;8426;48.496;9.098;2023-02-15T03:52:31;-3.50;99.90
16625;DHT22;8426;48.496;9.098;2023-02-15T03:57:37;-3.70;99.90
16625;DHT22;8426;48.496;9.098;2023-02-15T04:03:22;-3.70;99.90
16625;DHT22;8426;48.496;9.098;2023-02-15T04:08:28;-3.60;99.90
16625;DHT22;8426;48.496;9.098;2023-02-15T04:13:45;-3.50;99.90
16625;DHT22;8426;48.496;9.098;2023-02-15T04:18:49;-3.50;99.90
16625;DHT22;8426;48.496;9.098;2023-02-15T04:24:11;-3.60;99.90
16625;DHT22;8426;48.496;9.098;2023-02-15T04:29:32;-3.60;99.90
16625;DHT22;8426;48.496;9.098;2023-02-15T04:34:35;-3.50;99.90
16625;DHT22;8426;48.496;9.098;2023-02-15T04:39:40;-3.50;99.90
16625;DHT22;8426;48.496;9.098;2023-02-15T04:44:44;-3.50;99.90
16625;DHT22;8426;48.496;9.098;2023-02-15T04:49:47;-3.70;99.90
16625;DHT22;8426;48.496;9.098;2023-02-15T04:54:52;-3.80;99.90
16625;DHT22;8426;48.496;9.098;2023-02-15T04:59:56;-3.90;99.90
16625;DHT22;8426;48.496;9.098;2023-02-15T05:05:00;-3.90;99.90
16625;DHT22;8426;48.496;9.098;2023-02-15T05:10:06;-3.90;99.90
16625;DHT22;8426;48.496;9.098;2023-02-15T05:15:10;-3.90;99.90
16625;DHT22;8426;48.496;9.098;2023-02-15T05:20:13;-3.80;99.90
16625;DHT22;8426;48.496;9.098;2023-02-15T05:25:18;-3.80;99.90
16625;DHT22;8426;48.496;9.098;2023-02-15T05:30:38;-3.70;99.90
16625;DHT22;8426;48.496;9.098;2023-02-15T05:35:43;-3.70;99.90
16625;DHT22;8426;48.496;9.098;2023-02-15T05:40:48;-3.90;99.90
16625;DHT22;8426;48.496;9.098;2023-02-15T05:45:52;-3.90;99.90
16625;DHT22;8426;48.496;9.098;2023-02-15T05:51:00;-3.90;99.90
16625;DHT22;8426;48.496;9.098;2023-02-15T05:56:08;-3.90;99.90
16625;DHT22;8426;48.496;9.098;2023-02-15T06:01:12;-3.90;99.90
16625;DHT22;8426;48.496;9.098;2023-02-15T06:06:16;-3.90;99.90
16625;DHT22;8426;48.496;9.098;2023-02-15T06:11:21;-4.00;99.90
16625;DHT22;8426;48.496;9.098;2023-02-15T06:16:24;-4.10;99.90
16625;DHT22;8426;48.496;9.098;2023-02-15T06:21:28;-4.20;99.90
16625;DHT22;8426;48.496;9.098;2023-02-15T06:26:32;-4.20;99.90
16625;DHT22;8426;48.496;9.098;2023-02-15T06:31:36;-4.20;99.90
16625;DHT22;8426;48.496;9.098;2023-02-15T06:36:39;-4.20;99.90
16625;DHT22;8426;48.496;9.098;2023-02-15T06:41:44;-4.10;99.90
16625;DHT22;8426;48.496;9.098;2023-02-15T06:46:47;-4.10;99.90
16625;DHT22;8426;48.496;9.098;2023-02-15T06:51:51;-4.00;99.90
16625;DHT22;8426;48.496;9.098;2023-02-15T06:56:55;-4.00;99.90
16625;DHT22;8426;48.496;9.098;2023-02-15T07:01:59;-4.00;99.90
16625;DHT22;8426;48.496;9.098;2023-02-15T07:07:02;-3.90;99.90
16625;DHT22;8426;48.496;9.098;2023-02-15T07:12:07;-2.40;99.90
16625;DHT22;8426;48.496;9.098;2023-02-15T07:17:28;-1.00;99.90
16625;DHT22;8426;48.496;9.098;2023-02-15T07:22:37;-1.30;99.90
16625;DHT22;8426;48.496;9.098;2023-02-15T07:27:42;-1.90;99.90
16625;DHT22;8426;48.496;9.098;2023-02-15T07:32:45;-2.10;99.90
16625;DHT22;8426;48.496;9.098;2023-02-15T07:38:06;-2.10;99.90
16625;DHT22;8426;48.496;9.098;2023-02-15T07:43:12;-2.10;99.90
16625;DHT22;8426;48.496;9.098;2023-02-15T07:48:15;-2.00;99.90
16625;DHT22;8426;48.496;9.098;2023-02-15T07:53:19;-1.80;99.90
16625;DHT22;8426;48.496;9.098;2023-02-15T07:58:25;-1.70;99.90
16625;DHT22;8426;48.496;9.098;2023-02-15T08:03:50;-1.60;99.90
16625;DHT22;8426;48.496;9.098;2023-02-15T08:08:53;-1.50;99.90
16625;DHT22;8426;48.496;9.098;2023-02-15T08:14:01;-1.30;99.90
16625;DHT22;8426;48.496;9.098;2023-02-15T08:19:07;-1.10;99.90
16625;DHT22;8426;48.496;9.098;2023-02-15T08:24:12;-1.00;99.90
16625;DHT22;8426;48.496;9.098;2023-02-15T08:29:18;-0.80;99.90
16625;DHT22;8426;48.496;9.098;2023-02-15T08:34:23;-0.60;99.90
16625;DHT22;8426;48.496;9.098;2023-02-15T08:39:26;-0.30;99.90
16625;DHT22;8426;48.496;9.098;2023-02-15T08:44:31;0.50;99.90
16625;DHT22;8426;48.496;9.098;2023-02-15T08:49:35;2.90;99.90
16625;DHT22;8426;48.496;9.098;2023-02-15T08:54:38;5.30;99.90
16625;DHT22;8426;48.496;9.098;2023-02-15T08:59:43;6.90;99.90
16625;DHT22;8426;48.496;9.098;2023-02-15T09:04:46;8.50;99.90
16625;DHT22;8426;48.496;9.098;2023-02-15T09:09:49;9.50;99.90
16625;DHT22;8426;48.496;9.098;2023-02-15T09:14:54;10.20;99.90
16625;DHT22;8426;48.496;9.098;2023-02-15T09:19:57;10.70;99.90
16625;DHT22;8426;48.496;9.098;2023-02-15T09:25:01;11.60;99.90
16625;DHT22;8426;48.496;9.098;2023-02-15T09:30:07;12.30;99.90
16625;DHT22;8426;48.496;9.098;2023-02-15T09:35:10;11.80;99.90
16625;DHT22;8426;48.496;9.098;2023-02-15T09:40:15;11.70;99.90
16625;DHT22;8426;48.496;9.098;2023-02-15T09:45:42;11.40;99.90
16625;DHT22;8426;48.496;9.098;2023-02-15T09:50:58;11.80;99.90
16625;DHT22;8426;48.496;9.098;2023-02-15T09:56:09;12.30;99.90
16625;DHT22;8426;48.496;9.098;2023-02-15T10:01:30;12.50;99.90
16625;DHT22;8426;48.496;9.098;2023-02-15T10:13:05;11.00;99.90
16625;DHT22;8426;48.496;9.098;2023-02-15T10:18:42;9.50;99.90
16625;DHT22;8426;48.496;9.098;2023-02-15T10:29:30;8.10;99.90
16625;DHT22;8426;48.496;9.098;2023-02-15T10:34:41;7.80;99.90
16625;DHT22;8426;48.496;9.098;2023-02-15T10:39:52;7.90;99.90
16625;DHT22;8426;48.496;9.098;2023-02-15T10:45:09;7.90;99.90
16625;DHT22;8426;48.496;9.098;2023-02-15T10:50:26;8.10;99.90
16625;DHT22;8426;48.496;9.098;2023-02-15T10:55:44;8.10;99.90
16625;DHT22;8426;48.496;9.098;2023-02-15T11:00:54;8.10;99.90
16625;DHT22;8426;48.496;9.098;2023-02-15T11:06:06;8.40;99.90
16625;DHT22;8426;48.496;9.098;2023-02-15T11:11:14;8.60;99.90
16625;DHT22;8426;48.496;9.098;2023-02-15T11:16:21;8.80;99.90
16625;DHT22;8426;48.496;9.098;2023-02-15T11:21:32;8.90;99.90
16625;DHT22;8426;48.496;9.098;2023-02-15T11:26:44;9.10;99.90
16625;DHT22;8426;48.496;9.098;2023-02-15T11:31:53;9.30;99.90
16625;DHT22;8426;48.496;9.098;2023-02-15T11:37:04;9.70;99.90
16625;DHT22;8426;48.496;9.098;2023-02-15T11:42:12;9.80;99.90
16625;DHT22;8426;48.496;9.098;2023-02-15T11:47:18;10.10;99.90
16625;DHT22;8426;48.496;9.098;2023-02-15T11:52:23;10.30;99.90
16625;DHT22;8426;48.496;9.098;2023-02-15T11:57:31;10.50;99.90
16625;DHT22;8426;48.496;9.098;2023-02-15T12:02:39;10.60;99.90
16625;DHT22;8426;48.496;9.098;2023-02-15T12:07:50;10.60;99.90
16625;DHT22;8426;48.496;9.098;2023-02-15T12:13:10;10.80;99.90
16625;DHT22;8426;48.496;9.098;2023-02-15T12:18:19;11.00;99.90
16625;DHT22;8426;48.496;9.098;2023-02-15T12:23:27;11.20;99.90
16625;DHT22;8426;48.496;9.098;2023-02-15T12:28:33;11.30;99.90
16625;DHT22;8426;48.496;9.098;2023-02-15T12:33:41;11.30;99.90
16625;DHT22;8426;48.496;9.098;2023-02-15T12:44:19;11.50;99.90
16625;DHT22;8426;48.496;9.098;2023-02-15T12:49:22;12.00;99.90
16625;DHT22;8426;48.496;9.098;2023-02-15T12:54:35;12.10;99.90
16625;DHT22;8426;48.496;9.098;2023-02-15T12:59:49;12.20;99.90
16625;DHT22;8426;48.496;9.098;2023-02-15T13:04:53;12.30;99.90
16625;DHT22;8426;48.496;9.098;2023-02-15T13:09:57;12.50;99.90
16625;DHT22;8426;48.496;9.098;2023-02-15T13:15:02;12.60;99.90
16625;DHT22;8426;48.496;9.098;2023-02-15T13:20:17;12.70;99.90
16625;DHT22;8426;48.496;9.098;2023-02-15T13:25:22;13.10;99.90
16625;DHT22;8426;48.496;9.098;2023-02-15T13:30:30;13.30;99.90
16625;DHT22;8426;48.496;9.098;2023-02-15T13:35:42;13.40;99.90
16625;DHT22;8426;48.496;9.098;2023-02-15T13:40:51;13.30;99.90
16625;DHT22;8426;48.496;9.098;2023-02-15T13:46:23;13.10;99.90
16625;DHT22;8426;48.496;9.098;2023-02-15T13:51:38;13.20;99.90
16625;DHT22;8426;48.496;9.098;2023-02-15T13:56:57;13.30;99.90
16625;DHT22;8426;48.496;9.098;2023-02-15T14:02:33;13.30;99.90
16625;DHT22;8426;48.496;9.098;2023-02-15T14:07:52;13.30;99.90
16625;DHT22;8426;48.496;9.098;2023-02-15T14:13:32;13.20;99.90
16625;DHT22;8426;48.496;9.098;2023-02-15T14:18:43;13.00;99.90
16625;DHT22;8426;48.496;9.098;2023-02-15T14:24:05;13.00;99.90
16625;DHT22;8426;48.496;9.098;2023-02-15T14:29:17;12.80;99.90
16625;DHT22;8426;48.496;9.098;2023-02-15T14:34:27;12.80;99.90
16625;DHT22;8426;48.496;9.098;2023-02-15T14:39:41;12.70;99.90
16625;DHT22;8426;48.496;9.098;2023-02-15T14:45:15;12.60;99.90
16625;DHT22;8426;48.496;9.098;2023-02-15T14:50:41;12.60;99.90
16625;DHT22;8426;48.496;9.098;2023-02-15T14:55:45;12.50;99.90
16625;DHT22;8426;48.496;9.098;2023-02-15T15:00:49;12.40;99.90
16625;DHT22;8426;48.496;9.098;2023-02-15T15:05:55;12.30;99.90
16625;DHT22;8426;48.496;9.098;2023-02-15T15:16:49;12.10;99.90
16625;DHT22;8426;48.496;9.098;2023-02-15T15:21:57;12.00;99.90
16625;DHT22;8426;48.496;9.098;2023-02-15T15:27:41;11.90;99.90
16625;DHT22;8426;48.496;9.098;2023-02-15T15:32:50;11.70;99.90
16625;DHT22;8426;48.496;9.098;2023-02-15T15:38:12;11.50;99.90
16625;DHT22;8426;48.496;9.098;2023-02-15T15:44:17;11.40;99.90
16625;DHT22;8426;48.496;9.098;2023-02-15T15:49:29;11.10;99.90
16625;DHT22;8426;48.496;9.098;2023-02-15T15:54:38;10.90;99.90
16625;DHT22;8426;48.496;9.098;2023-02-15T15:59:44;10.60;99.90
16625;DHT22;8426;48.496;9.098;2023-02-15T16:04:48;10.30;99.90
16625;DHT22;8426;48.496;9.098;2023-02-15T16:09:58;10.10;99.90
16625;DHT22;8426;48.496;9.098;2023-02-15T16:15:04;9.90;99.90
16625;DHT22;8426;48.496;9.098;2023-02-15T16:20:17;9.80;99.90
16625;DHT22;8426;48.496;9.098;2023-02-15T16:25:31;9.70;99.90
16625;DHT22;8426;48.496;9.098;2023-02-15T16:30:38;9.40;99.90
16625;DHT22;8426;48.496;9.098;2023-02-15T16:35:53;9.20;99.90
16625;DHT22;8426;48.496;9.098;2023-02-15T16:40:58;9.00;99.90
16625;DHT22;8426;48.496;9.098;2023-02-15T16:46:06;8.50;99.90
16625;DHT22;8426;48.496;9.098;2023-02-15T16:51:10;8.10;99.90
16625;DHT22;8426;48.496;9.098;2023-02-15T16:56:25;7.70;99.90
16625;DHT22;8426;48.496;9.098;2023-02-15T17:01:31;7.40;99.90
16625;DHT22;8426;48.496;9.098;2023-02-15T17:06:36;7.20;99.90
16625;DHT22;8426;48.496;9.098;2023-02-15T17:11:48;7.00;99.90
16625;DHT22;8426;48.496;9.098;2023-02-15T17:16:54;6.90;99.90
16625;DHT22;8426;48.496;9.098;2023-02-15T17:22:03;6.80;99.90
16625;DHT22;8426;48.496;9.098;2023-02-15T17:27:17;6.80;99.90
16625;DHT22;8426;48.496;9.098;2023-02-15T17:32:28;6.50;99.90
16625;DHT22;8426;48.496;9.098;2023-02-15T17:37:42;6.20;99.90
16625;DHT22;8426;48.496;9.098;2023-02-15T17:42:48;5.80;99.90
16625;DHT22;8426;48.496;9.098;2023-02-15T17:48:04;5.50;99.90
16625;DHT22;8426;48.496;9.098;2023-02-15T17:53:08;5.00;99.90
16625;DHT22;8426;48.496;9.098;2023-02-15T17:58:18;4.80;99.90
16625;DHT22;8426;48.496;9.098;2023-02-15T18:03:29;4.80;99.90
16625;DHT22;8426;48.496;9.098;2023-02-15T18:08:52;5.00;99.90
16625;DHT22;8426;48.496;9.098;2023-02-15T18:14:16;5.30;99.90
16625;DHT22;8426;48.496;9.098;2023-02-15T18:19:21;5.60;99.90
16625;DHT22;8426;48.496;9.098;2023-02-15T18:24:27;5.60;99.90
16625;DHT22;8426;48.496;9.098;2023-02-15T18:29:32;5.50;99.90
16625;DHT22;8426;48.496;9.098;2023-02-15T18:34:37;5.30;99.90
16625;DHT22;8426;48.496;9.098;2023-02-15T18:39:59;5.10;99.90
16625;DHT22;8426;48.496;9.098;2023-02-15T18:45:16;4.70;99.90
16625;DHT22;8426;48.496;9.098;2023-02-15T18:50:27;4.20;99.90
16625;DHT22;8426;48.496;9.098;2023-02-15T18:55:38;3.90;99.90
16625;DHT22;8426;48.496;9.098;2023-02-15T19:00:43;3.30;99.90
16625;DHT22;8426;48.496;9.098;2023-02-15T19:05:47;3.00;99.90
16625;DHT22;8426;48.496;9.098;2023-02-15T19:10:51;2.90;99.90
16625;DHT22;8426;48.496;9.098;2023-02-15T19:16:03;2.70;99.90
16625;DHT22;8426;48.496;9.098;2023-02-15T19:21:13;2.40;99.90
16625;DHT22;8426;48.496;9.098;2023-02-15T19:26:19;2.30;99.90
16625;DHT22;8426;48.496;9.098;2023-02-15T19:31:52;2.20;99.90
16625;DHT22;8426;48.496;9.098;2023-02-15T19:36:58;2.10;99.90
16625;DHT22;8426;48.496;9.098;2023-02-15T19:42:02;2.00;99.90
16625;DHT22;8426;48.496;9.098;2023-02-15T19:47:14;1.80;99.90
16625;DHT22;8426;48.496;9.098;2023-02-15T19:52:20;1.70;99.90
16625;DHT22;8426;48.496;9.098;2023-02-15T19:57:26;1.50;99.90
16625;DHT22;8426;48.496;9.098;2023-02-15T20:02:31;1.50;99.90
16625;DHT22;8426;48.496;9.098;2023-02-15T20:07:34;1.40;99.90
16625;DHT22;8426;48.496;9.098;2023-02-15T20:12:40;1.30;99.90
16625;DHT22;8426;48.496;9.098;2023-02-15T20:17:53;1.10;99.90
16625;DHT22;8426;48.496;9.098;2023-02-15T20:22:57;1.10;99.90
16625;DHT22;8426;48.496;9.098;2023-02-15T20:28:04;1.30;99.90
16625;DHT22;8426;48.496;9.098;2023-02-15T20:33:09;1.40;99.90
16625;DHT22;8426;48.496;9.098;2023-02-15T20:38:17;1.30;99.90
16625;DHT22;8426;48.496;9.098;2023-02-15T20:43:22;1.30;99.90
16625;DHT22;8426;48.496;9.098;2023-02-15T20:48:27;1.00;99.90
16625;DHT22;8426;48.496;9.098;2023-02-15T20:53:55;0.60;99.90
16625;DHT22;8426;48.496;9.098;2023-02-15T20:58:58;0.50;99.90
16625;DHT22;8426;48.496;9.098;2023-02-15T21:04:03;0.40;99.90
16625;DHT22;8426;48.496;9.098;2023-02-15T21:09:12;0.30;99.90
16625;DHT22;8426;48.496;9.098;2023-02-15T21:14:17;0.20;99.90
16625;DHT22;8426;48.496;9.098;2023-02-15T21:19:23;0.10;99.90
16625;DHT22;8426;48.496;9.098;2023-02-15T21:24:27;0.00;99.90
16625;DHT22;8426;48.496;9.098;2023-02-15T21:29:31;0.20;99.90
16625;DHT22;8426;48.496;9.098;2023-02-15T21:34:35;0.10;99.90
16625;DHT22;8426;48.496;9.098;2023-02-15T21:39:39;0.20;99.90
16625;DHT22;8426;48.496;9.098;2023-02-15T21:44:42;0.10;99.90
16625;DHT22;8426;48.496;9.098;2023-02-15T21:50:07;0.00;99.90
16625;DHT22;8426;48.496;9.098;2023-02-15T21:55:30;0.10;99.90
16625;DHT22;8426;48.496;9.098;2023-02-15T22:00:36;0.30;99.90
16625;DHT22;8426;48.496;9.098;2023-02-15T22:05:40;0.20;99.90
16625;DHT22;8426;48.496;9.098;2023-02-15T22:10:44;0.30;99.90
16625;DHT22;8426;48.496;9.098;2023-02-15T22:15:48;0.50;99.90
16625;DHT22;8426;48.496;9.098;2023-02-15T22:20:54;0.60;99.90
16625;DHT22;8426;48.496;9.098;2023-02-15T22:26:01;0.60;99.90
16625;DHT22;8426;48.496;9.098;2023-02-15T22:31:09;0.60;99.90
16625;DHT22;8426;48.496;9.098;2023-02-15T22:36:21;0.60;99.90
16625;DHT22;8426;48.496;9.098;2023-02-15T22:41:28;0.70;99.90
16625;DHT22;8426;48.496;9.098;2023-02-15T22:46:31;0.60;99.90
16625;DHT22;8426;48.496;9.098;2023-02-15T22:51:36;0.60;99.90
16625;DHT22;8426;48.496;9.098;2023-02-15T22:56:42;0.50;99.90
16625;DHT22;8426;48.496;9.098;2023-02-15T23:01:46;0.40;99.90
16625;DHT22;8426;48.496;9.098;2023-02-15T23:06:51;0.30;99.90
16625;DHT22;8426;48.496;9.098;2023-02-15T23:11:56;0.40;99.90
16625;DHT22;8426;48.496;9.098;2023-02-15T23:16:59;0.40;99.90
16625;DHT22;8426;48.496;9.098;2023-02-15T23:22:06;0.30;99.90
16625;DHT22;8426;48.496;9.098;2023-02-15T23:27:15;0.10;99.90
16625;DHT22;8426;48.496;9.098;2023-02-15T23:32:36;0.00;99.90
16625;DHT22;8426;48.496;9.098;2023-02-15T23:37:41;-0.20;99.90
16625;DHT22;8426;48.496;9.098;2023-02-15T23:42:44;-0.40;99.90
16625;DHT22;8426;48.496;9.098;2023-02-15T23:47:48;-0.40;99.90
16625;DHT22;8426;48.496;9.098;2023-02-15T23:53:10;-0.20;99.90
16625;DHT22;8426;48.496;9.098;2023-02-15T23:58:16;0.20;99.90
